Terminal Aerodrome Forecast
Issued by NWS

Home | Current Version | Previous Version | Text Only | Print | Product List | Glossary On
Versions: 1 2 3 4 5 6 7 8 9 10 11 12 13 14 15 16 17 18 19 20 21 22 23 24 25 26 27 28 29
000
FTUS44 KHGX 012048 AAB
TAFIAH
TAF AMD
KIAH 012048Z 0121/0224 07009KT P6SM VCTS SCT027 BKN040CB OVC060
     FM020100 07006KT P6SM SCT025 BKN040
     FM020400 11007KT P6SM BKN015
     FM021000 01011G18KT P6SM VCTS SCT009CB BKN025
     FM022100 01015KT P6SM BKN050=

USA.gov is the U.S. government's official web portal to all federal, state and local government web resources and services.